Northway Airport
PAOR : rendu visible

Aérodrome :











RETROUVEZ-NOUS SUR...

 
LOGIN :

S'inscrire | Disclaimer

   EN    FR    IT 

 









Légende :    VFR   VFR Marginal   IFR   IFR Intensif   IFR Très Intensif
Visi : 
Plafond : 
>= 8 km
>= 3000ft
5 à 8 km
1000 à 3000 ft
1500m à 5 km
500 à 1000 ft
800 à 1500m
200 à 500 ft
< 800m
< 200 ft
Symboles :   Orages  Brouillard  Fortes neiges  Fortes précipitations  Vent > 20 kt






- Altitude de l'aérodrome : 1715 ft
- Code IATA : ORT


PAOR - Northway

DERNIER METAR :
  • 041253Z 09003KT 1/4SM FZFG VV001 M16/M18 A2996 RMK AO2 SLP189 T11561178

METARs EXPIRÉS :
  • 041153Z 07003KT 1/4SM FZFG VV001 M14/M16 A2998 RMK AO2 SLP195 4/011 I1000 I6000 T11391156 11022 21144 56011
  • 041127Z 00000KT 1 1/4SM BR BKN001 M14/M16 A2999 RMK AO2 T11391161
  • 041110Z 00000KT 10SM BKN001 M14/M17 A2999 RMK AO2 T11391167
  • 041053Z 04003KT 10SM BKN060 M14/M16 A3000 RMK AO2 SLP200 I1000 T11391161

TAF PAOR
Valide du 04 à 12h jusqu'au 05 à 12h UTC


041131Z 0412/0512 24010KT P6SM VCSH SCT025 BKN050
TEMPO 0412/0413 1/2SM FZFG BKN001



MET'MAP, la Météo Aéronautique d'un coup d'oeil ! - Copyright ORBIFLY Décembre 2007 - Disclaimer

ORBIFLY MET'MAP TEAM :

Programmation & Développement : Alexandra Zaïnal
Sur une idée originale de : Baudouin d'Aumeries
Assistance à la programmation : Marc-Olivier Méhu
Soutien technique & logistique : Manuel Goepfert

Contact : metmap@orbifly.com




SOURCES & CREDITS :

   NOAA       Earth
Advisory